createdAt,value
2023-04-29T00:00:52.564Z,27.73
2023-04-29T00:03:20.076Z,27.10
2023-04-29T00:05:47.635Z,29.88
2023-04-29T00:08:16.380Z,27.02
2023-04-29T00:10:43.771Z,30.58
2023-04-29T00:13:12.780Z,32.03
2023-04-29T00:15:40.992Z,32.17
2023-04-29T00:18:09.392Z,34.10
2023-04-29T00:20:37.867Z,33.38
2023-04-29T00:23:06.002Z,36.17
2023-04-29T00:25:35.247Z,34.58
2023-04-29T00:28:03.315Z,36.15
2023-04-29T00:30:30.914Z,34.80
2023-04-29T00:32:58.230Z,31.45
2023-04-29T00:35:25.565Z,31.38
2023-04-29T00:37:52.879Z,27.92
2023-04-29T00:40:20.302Z,31.70
2023-04-29T00:42:48.981Z,29.90
2023-04-29T00:45:16.295Z,32.35
2023-04-29T00:47:43.668Z,29.60
2023-04-29T00:50:11.281Z,30.35
2023-04-29T00:52:38.935Z,31.10
2023-04-29T00:55:08.797Z,26.83
2023-04-29T00:57:36.155Z,29.65
2023-04-29T01:00:05.492Z,30.05
2023-04-29T01:02:33.552Z,28.90
2023-04-29T01:05:01.096Z,28.92
2023-04-29T01:07:36.137Z,38.70
2023-04-29T01:10:05.347Z,35.53
2023-04-29T01:12:36.087Z,35.63
2023-04-29T01:15:07.305Z,37.10
2023-04-29T01:17:38.357Z,34.00
2023-04-29T01:20:06.561Z,34.55
2023-04-29T01:22:33.868Z,35.22
2023-04-29T01:25:02.540Z,40.75
2023-04-29T01:27:32.648Z,43.47
2023-04-29T01:30:01.906Z,45.53
2023-04-29T01:32:34.698Z,37.72
2023-04-29T01:35:10.101Z,47.63
2023-04-29T01:37:42.333Z,41.88
2023-04-29T01:40:15.700Z,49.28
2023-04-29T01:42:46.390Z,45.58
2023-04-29T01:45:16.244Z,49.30
2023-04-29T01:47:44.067Z,46.47
2023-04-29T01:50:11.781Z,49.22
2023-04-29T01:52:39.313Z,50.85
2023-04-29T01:55:07.502Z,49.40
2023-04-29T01:57:36.270Z,48.90
2023-04-29T02:00:04.767Z,47.40
2023-04-29T02:02:32.180Z,55.95
2023-04-29T02:04:59.667Z,50.35
2023-04-29T02:07:27.413Z,53.35
2023-04-29T02:09:54.900Z,53.88
2023-04-29T02:12:22.369Z,58.13
2023-04-29T02:14:52.994Z,57.90
2023-04-29T02:17:20.309Z,56.58
2023-04-29T02:19:47.574Z,60.03
2023-04-29T02:22:15.190Z,59.67
2023-04-29T02:24:42.462Z,59.63
2023-04-29T02:27:09.898Z,61.42
2023-04-29T02:29:37.237Z,54.40
2023-04-29T02:32:08.540Z,63.17
2023-04-29T02:34:35.874Z,62.75
2023-04-29T02:37:03.207Z,61.70
2023-04-29T02:39:30.638Z,62.15
2023-04-29T02:41:58.457Z,67.95
2023-04-29T02:44:25.810Z,64.72
2023-04-29T02:46:53.309Z,70.82
2023-04-29T02:49:21.919Z,68.93
2023-04-29T02:51:49.993Z,72.75
2023-04-29T02:54:17.310Z,81.25
2023-04-29T02:56:44.600Z,76.60
2023-04-29T02:59:11.995Z,85.57
2023-04-29T03:01:39.767Z,76.32
2023-04-29T03:04:07.710Z,92.22
2023-04-29T03:06:39.317Z,90.63
2023-04-29T03:09:06.604Z,98.60
2023-04-29T03:11:33.906Z,107.75
2023-04-29T03:14:01.368Z,107.00
2023-04-29T03:16:29.141Z,118.00
2023-04-29T03:18:56.785Z,123.20
2023-04-29T03:21:25.136Z,124.45
2023-04-29T03:23:53.829Z,134.07
2023-04-29T03:26:24.774Z,149.10
2023-04-29T03:28:52.279Z,144.18
2023-04-29T03:31:21.043Z,149.48
2023-04-29T03:33:48.388Z,149.70
2023-04-29T03:36:15.671Z,160.98
2023-04-29T03:38:43.234Z,156.43
2023-04-29T03:41:11.922Z,159.98
2023-04-29T03:43:39.225Z,159.63
2023-04-29T03:46:06.631Z,169.02
2023-04-29T03:48:33.919Z,172.10
2023-04-29T03:51:01.194Z,156.82
2023-04-29T03:53:28.495Z,152.77
2023-04-29T03:55:55.917Z,153.30
2023-04-29T03:58:24.609Z,158.40
2023-04-29T04:00:52.006Z,158.07
2023-04-29T04:03:19.583Z,188.50
2023-04-29T04:05:47.037Z,183.65
2023-04-29T04:08:14.325Z,226.55
2023-04-29T04:10:41.585Z,192.60
2023-04-29T04:13:09.076Z,222.10
2023-04-29T04:15:37.707Z,197.77
2023-04-29T04:18:05.180Z,205.40
2023-04-29T04:20:32.486Z,230.55
2023-04-29T04:22:59.757Z,217.27
2023-04-29T04:25:27.048Z,216.07
2023-04-29T04:27:54.474Z,221.73
2023-04-29T04:30:21.856Z,216.18
2023-04-29T04:32:50.532Z,224.68
2023-04-29T04:35:17.952Z,220.82
2023-04-29T04:37:45.385Z,208.25
2023-04-29T04:40:13.695Z,206.43
2023-04-29T04:42:41.265Z,206.23
2023-04-29T04:45:09.609Z,192.65
2023-04-29T04:47:37.031Z,189.85
2023-04-29T04:50:06.611Z,203.13
2023-04-29T04:52:33.904Z,196.52
2023-04-29T04:55:01.202Z,206.60
2023-04-29T04:57:28.565Z,190.20
2023-04-29T04:59:55.963Z,207.50
2023-04-29T05:02:23.386Z,214.35
2023-04-29T05:04:50.831Z,201.85
2023-04-29T05:07:19.455Z,210.98
2023-04-29T05:09:46.755Z,195.77
2023-04-29T05:12:14.087Z,176.05
2023-04-29T05:14:41.432Z,166.07
2023-04-29T05:17:09.893Z,161.07
2023-04-29T05:19:37.222Z,169.02
2023-04-29T05:22:04.561Z,179.60
2023-04-29T05:24:33.244Z,170.32
2023-04-29T05:27:00.549Z,142.32
2023-04-29T05:29:28.085Z,151.45
2023-04-29T05:31:55.377Z,137.85
2023-04-29T05:34:22.707Z,139.60
2023-04-29T05:36:50.071Z,135.55
2023-04-29T05:39:17.687Z,152.82
2023-04-29T05:41:46.339Z,143.98
2023-04-29T05:44:13.646Z,125.68
2023-04-29T05:46:41.216Z,124.35
2023-04-29T05:49:08.821Z,116.40
2023-04-29T05:51:36.142Z,100.63
2023-04-29T05:54:03.507Z,94.70
2023-04-29T05:56:31.839Z,94.53
2023-04-29T05:59:00.585Z,90.60
2023-04-29T06:01:27.890Z,79.55
2023-04-29T06:03:55.319Z,84.72
2023-04-29T06:06:22.932Z,81.82
2023-04-29T06:08:50.533Z,89.57
2023-04-29T06:11:17.936Z,84.72
2023-04-29T06:13:45.653Z,76.15
2023-04-29T06:16:14.389Z,67.70
2023-04-29T06:18:41.731Z,74.20
2023-04-29T06:21:09.062Z,71.55
2023-04-29T06:23:36.521Z,77.03
2023-04-29T06:26:03.819Z,68.50
2023-04-29T06:28:31.312Z,71.82
2023-04-29T06:30:58.603Z,67.93
2023-04-29T06:33:28.217Z,66.28
2023-04-29T06:35:55.522Z,61.95
2023-04-29T06:38:22.834Z,65.13
2023-04-29T06:40:50.256Z,63.38
2023-04-29T06:43:17.570Z,53.30
2023-04-29T06:45:46.832Z,67.05
2023-04-29T06:48:14.173Z,62.53
2023-04-29T06:50:49.537Z,60.08
2023-04-29T06:53:16.871Z,63.00
2023-04-29T06:55:44.653Z,64.22
2023-04-29T06:58:11.946Z,68.35
2023-04-29T07:00:39.221Z,63.63
2023-04-29T07:03:06.671Z,70.45
2023-04-29T07:05:34.178Z,58.70
2023-04-29T07:08:03.223Z,59.03
2023-04-29T07:10:30.587Z,61.65
2023-04-29T07:12:57.948Z,58.17
2023-04-29T07:15:25.330Z,52.35
2023-04-29T07:17:52.692Z,51.58
2023-04-29T07:20:22.404Z,53.60
2023-04-29T07:22:49.950Z,51.55
2023-04-29T07:25:18.776Z,45.53
2023-04-29T07:27:46.090Z,44.75
2023-04-29T07:30:13.591Z,43.00
2023-04-29T07:32:40.893Z,38.90
2023-04-29T07:35:08.590Z,39.38
2023-04-29T07:37:35.922Z,35.65
2023-04-29T07:40:03.358Z,42.35
2023-04-29T07:42:32.016Z,37.83
2023-04-29T07:44:59.351Z,31.38
2023-04-29T07:47:27.071Z,35.90
2023-04-29T07:49:54.387Z,34.90
2023-04-29T07:52:21.772Z,32.53
2023-04-29T07:54:49.073Z,30.10
2023-04-29T07:57:16.682Z,33.55
2023-04-29T07:59:45.365Z,28.98
2023-04-29T08:02:13.723Z,26.88
2023-04-29T08:04:42.415Z,29.02
2023-04-29T08:07:10.516Z,24.17
2023-04-29T08:09:37.805Z,26.85
2023-04-29T08:12:05.431Z,25.73
2023-04-29T08:14:32.751Z,25.08
2023-04-29T08:17:01.471Z,24.40
2023-04-29T08:19:28.736Z,28.05
2023-04-29T08:21:56.062Z,27.63
2023-04-29T08:24:23.409Z,27.63
2023-04-29T08:26:51.662Z,25.25
2023-04-29T08:29:18.919Z,27.73
2023-04-29T08:31:46.724Z,26.20
2023-04-29T08:34:15.482Z,29.80
2023-04-29T08:36:42.811Z,25.48
2023-04-29T08:39:10.310Z,23.65
2023-04-29T08:41:37.764Z,26.48
2023-04-29T08:44:05.228Z,27.58
2023-04-29T08:46:32.631Z,22.70
2023-04-29T08:49:00.489Z,25.73
2023-04-29T08:51:29.161Z,25.15
2023-04-29T08:53:57.292Z,22.77
2023-04-29T08:56:25.744Z,22.80
2023-04-29T08:58:55.323Z,20.58
2023-04-29T09:01:23.987Z,20.33
2023-04-29T09:03:52.715Z,20.23
2023-04-29T09:06:21.362Z,19.15
2023-04-29T09:08:50.138Z,18.80
2023-04-29T09:11:17.607Z,18.52
2023-04-29T09:13:44.914Z,18.40
2023-04-29T09:16:12.797Z,15.70
2023-04-29T09:18:43.905Z,15.68
2023-04-29T09:21:21.125Z,16.02
2023-04-29T09:23:51.672Z,18.67
2023-04-29T09:26:19.330Z,18.52
2023-04-29T09:28:47.591Z,18.48
2023-04-29T09:31:15.625Z,23.40
2023-04-29T09:33:52.441Z,17.88
2023-04-29T09:36:36.343Z,18.52
2023-04-29T09:39:05.816Z,18.92
2023-04-29T09:41:33.176Z,15.75
2023-04-29T09:44:05.066Z,19.25
2023-04-29T09:46:33.235Z,19.75
2023-04-29T09:49:00.657Z,17.63
2023-04-29T09:51:28.019Z,18.35
2023-04-29T09:53:55.321Z,22.80
2023-04-29T09:56:23.957Z,20.08
2023-04-29T09:58:51.308Z,20.30
2023-04-29T10:01:21.459Z,20.20
2023-04-29T10:03:49.532Z,19.45
2023-04-29T10:06:17.844Z,18.38
2023-04-29T10:08:45.212Z,19.92
2023-04-29T10:11:12.768Z,24.92
2023-04-29T10:13:44.105Z,25.80
2023-04-29T10:16:13.783Z,23.05
2023-04-29T10:18:42.641Z,23.27
2023-04-29T10:21:10.257Z,22.40
2023-04-29T10:23:37.892Z,19.85
2023-04-29T10:26:06.552Z,21.70
2023-04-29T10:28:34.136Z,20.25
2023-04-29T10:31:03.730Z,20.95
2023-04-29T10:33:32.387Z,24.48
2023-04-29T10:36:00.745Z,21.10
2023-04-29T10:38:29.805Z,24.15
2023-04-29T10:40:59.434Z,23.67
2023-04-29T10:43:27.315Z,32.70
2023-04-29T10:46:10.134Z,28.55
2023-04-29T10:48:38.827Z,29.88
2023-04-29T10:51:06.263Z,34.15
2023-04-29T10:53:33.647Z,33.45
2023-04-29T10:56:04.869Z,30.95
2023-04-29T10:58:35.824Z,30.63
2023-04-29T11:01:03.173Z,26.00
2023-04-29T11:03:54.831Z,30.48
2023-04-29T11:06:24.984Z,24.75
2023-04-29T11:09:03.260Z,28.80
2023-04-29T11:11:43.522Z,34.83
2023-04-29T11:14:11.897Z,34.55
2023-04-29T11:16:39.301Z,35.78
2023-04-29T11:19:09.095Z,35.10
2023-04-29T11:21:37.059Z,36.15
2023-04-29T11:24:06.152Z,35.22
2023-04-29T11:26:34.049Z,39.72
2023-04-29T11:29:01.411Z,36.38
2023-04-29T11:31:31.520Z,34.75
2023-04-29T11:33:58.925Z,37.35
2023-04-29T11:36:28.345Z,43.58
2023-04-29T11:39:00.717Z,47.25
2023-04-29T11:41:28.170Z,43.20
2023-04-29T11:43:58.981Z,47.38
2023-04-29T11:46:28.004Z,43.42
2023-04-29T11:48:55.639Z,43.05
2023-04-29T11:51:23.009Z,47.25
2023-04-29T11:53:52.333Z,46.83
2023-04-29T11:56:22.897Z,52.90
2023-04-29T11:58:50.216Z,60.20
2023-04-29T12:01:17.528Z,66.88
2023-04-29T12:03:45.171Z,74.25
2023-04-29T12:06:14.660Z,66.20
2023-04-29T12:08:41.978Z,81.35
2023-04-29T12:11:10.656Z,79.15
2023-04-29T12:13:38.192Z,91.88
2023-04-29T12:16:06.178Z,88.53
2023-04-29T12:18:33.675Z,89.70
2023-04-29T12:21:01.154Z,84.70
2023-04-29T12:23:29.600Z,85.28
2023-04-29T12:25:57.707Z,70.55
2023-04-29T12:28:26.413Z,67.55
2023-04-29T12:30:54.794Z,73.53
2023-04-29T12:33:22.603Z,68.50
2023-04-29T12:35:50.890Z,76.88
2023-04-29T12:38:21.662Z,68.40
2023-04-29T12:40:49.239Z,71.72
2023-04-29T12:43:16.776Z,75.93
2023-04-29T12:45:45.440Z,76.18
2023-04-29T12:48:22.064Z,74.75
2023-04-29T12:50:58.458Z,76.60
2023-04-29T12:53:25.857Z,70.78
2023-04-29T12:55:53.195Z,77.93
2023-04-29T12:58:22.927Z,66.15
2023-04-29T13:00:51.760Z,76.57
2023-04-29T13:03:21.961Z,65.63
2023-04-29T13:05:52.539Z,62.25
2023-04-29T13:08:20.094Z,62.10
2023-04-29T13:10:47.461Z,62.17
2023-04-29T13:13:14.802Z,64.38
2023-04-29T13:15:42.395Z,62.22
2023-04-29T13:18:11.227Z,58.58
2023-04-29T13:20:42.320Z,58.88
2023-04-29T13:23:09.799Z,62.40
2023-04-29T13:25:37.206Z,59.00
2023-04-29T13:28:05.165Z,62.58
2023-04-29T13:30:32.891Z,57.70
2023-04-29T13:33:09.294Z,56.83
2023-04-29T13:35:41.512Z,62.20
2023-04-29T13:38:09.124Z,55.45
2023-04-29T13:40:40.727Z,60.00
2023-04-29T13:43:10.666Z,57.50
2023-04-29T13:45:43.777Z,55.40
2023-04-29T13:48:37.655Z,57.03
2023-04-29T13:54:10.517Z,52.25
2023-04-29T14:03:52.695Z,52.42
2023-04-29T14:06:21.426Z,45.40
2023-04-29T14:08:48.709Z,47.15
2023-04-29T14:11:16.091Z,43.70
2023-04-29T14:13:43.867Z,44.78
2023-04-29T14:16:11.912Z,43.83
2023-04-29T14:18:39.214Z,35.35
2023-04-29T14:21:06.574Z,34.83
2023-04-29T14:23:35.688Z,36.50
2023-04-29T14:26:17.177Z,41.30
2023-04-29T14:28:57.202Z,39.25
2023-04-29T14:31:24.629Z,41.33
2023-04-29T14:33:52.082Z,37.05
2023-04-29T14:36:19.386Z,38.38
2023-04-29T14:38:48.102Z,37.55
2023-04-29T14:41:15.876Z,37.63
2023-04-29T14:43:43.454Z,38.00
2023-04-29T14:46:11.032Z,36.00
2023-04-29T14:48:38.447Z,36.30
2023-04-29T14:51:06.291Z,39.03
2023-04-29T14:53:33.774Z,34.72
2023-04-29T14:56:03.560Z,38.80
2023-04-29T14:58:30.955Z,39.33
2023-04-29T15:00:58.300Z,39.40
2023-04-29T15:03:25.703Z,35.47
2023-04-29T15:05:53.254Z,34.45
2023-04-29T15:08:20.707Z,35.75
2023-04-29T15:10:48.223Z,35.00
2023-04-29T15:13:16.888Z,41.03
2023-04-29T15:15:44.206Z,40.78
2023-04-29T15:18:11.526Z,39.40
2023-04-29T15:20:38.943Z,38.50
2023-04-29T15:23:08.227Z,41.15
2023-04-29T15:25:36.362Z,40.08
2023-04-29T15:28:05.639Z,43.95
2023-04-29T15:30:35.516Z,42.35
2023-04-29T15:33:02.821Z,43.58
2023-04-29T15:35:30.143Z,38.28
2023-04-29T15:37:59.079Z,43.88
2023-04-29T15:40:26.601Z,45.03
2023-04-29T15:42:53.932Z,42.13
2023-04-29T15:45:21.210Z,40.88
2023-04-29T15:47:49.969Z,39.20
2023-04-29T15:50:17.278Z,40.22
2023-04-29T15:52:44.596Z,42.95
2023-04-29T15:55:12.272Z,42.33
2023-04-29T15:57:41.280Z,37.97
2023-04-29T16:00:09.692Z,34.88
2023-04-29T16:02:37.087Z,36.50
2023-04-29T16:05:06.232Z,36.20
2023-04-29T16:07:34.970Z,37.90
2023-04-29T16:10:03.587Z,37.92
2023-04-29T16:12:31.377Z,41.53
2023-04-29T16:14:58.948Z,39.10
2023-04-29T16:17:26.340Z,41.35
2023-04-29T16:19:53.884Z,43.58
2023-04-29T16:22:22.763Z,42.33
2023-04-29T16:24:50.429Z,46.85
2023-04-29T16:27:18.056Z,42.88
2023-04-29T16:29:45.359Z,47.10
2023-04-29T16:32:12.698Z,49.85
2023-04-29T16:34:40.016Z,43.25
2023-04-29T16:37:12.220Z,40.15
2023-04-29T16:39:41.353Z,39.85
2023-04-29T16:42:08.684Z,42.67
2023-04-29T16:44:36.134Z,42.42
2023-04-29T16:47:03.503Z,43.80
2023-04-29T16:49:31.369Z,40.80
2023-04-29T16:51:58.816Z,37.22
2023-04-29T16:54:26.336Z,42.38
2023-04-29T16:56:55.032Z,35.75
2023-04-29T16:59:22.357Z,37.78
2023-04-29T17:01:49.767Z,33.42
2023-04-29T17:04:17.190Z,38.50
2023-04-29T17:06:44.634Z,36.88
2023-04-29T17:09:12.232Z,35.55
2023-04-29T17:11:39.554Z,36.45
2023-04-29T17:14:08.307Z,35.45
2023-04-29T17:16:35.636Z,34.15
2023-04-29T17:19:03.173Z,38.33
2023-04-29T17:21:32.349Z,35.20
2023-04-29T17:23:59.820Z,37.90
2023-04-29T17:26:27.159Z,36.88
2023-04-29T17:28:54.444Z,33.45
2023-04-29T17:31:25.398Z,33.22
2023-04-29T17:34:04.961Z,34.17
2023-04-29T17:36:32.579Z,34.47
2023-04-29T17:38:59.983Z,33.80
2023-04-29T17:41:27.288Z,35.22
2023-04-29T17:43:54.630Z,35.70
2023-04-29T17:46:25.797Z,38.70
2023-04-29T17:48:53.176Z,34.92
2023-04-29T17:51:20.470Z,34.20
2023-04-29T17:53:47.758Z,33.45
2023-04-29T17:56:15.091Z,32.08
2023-04-29T17:58:42.390Z,35.80
2023-04-29T18:01:09.737Z,34.53
2023-04-29T18:03:38.498Z,35.72
2023-04-29T18:06:06.132Z,35.42
2023-04-29T18:08:33.450Z,34.15
2023-04-29T18:11:00.746Z,32.30
2023-04-29T18:13:28.059Z,32.67
2023-04-29T18:15:55.390Z,34.67
2023-04-29T18:18:22.762Z,35.67
2023-04-29T18:20:51.782Z,37.45
2023-04-29T18:23:19.121Z,38.67
2023-04-29T18:25:46.455Z,35.85
2023-04-29T18:28:24.755Z,34.70
2023-04-29T18:30:53.137Z,36.22
2023-04-29T18:33:20.528Z,33.35
2023-04-29T18:35:47.851Z,38.22
2023-04-29T18:38:17.378Z,38.90
2023-04-29T18:40:45.272Z,35.72
2023-04-29T18:43:15.155Z,39.88
2023-04-29T18:45:42.580Z,40.75
2023-04-29T18:48:09.957Z,42.67
2023-04-29T18:50:37.356Z,38.65
2023-04-29T18:53:04.720Z,38.83
2023-04-29T18:55:33.404Z,41.67
2023-04-29T18:58:00.819Z,42.40
2023-04-29T19:00:28.185Z,39.63
2023-04-29T19:02:56.282Z,41.92
2023-04-29T19:05:23.700Z,39.10
2023-04-29T19:07:51.080Z,43.15
2023-04-29T19:10:18.441Z,48.40
2023-04-29T19:12:47.183Z,47.65
2023-04-29T19:15:15.163Z,44.78
2023-04-29T19:17:42.513Z,53.78
2023-04-29T19:20:10.999Z,45.85
2023-04-29T19:22:38.561Z,42.10
2023-04-29T19:25:06.556Z,45.33
2023-04-29T19:27:33.924Z,42.88
2023-04-29T19:30:02.625Z,39.58
2023-04-29T19:32:30.397Z,46.47
2023-04-29T19:34:57.839Z,43.22
2023-04-29T19:37:25.984Z,41.35
2023-04-29T19:39:53.872Z,44.97
2023-04-29T19:42:21.344Z,42.15
2023-04-29T19:44:48.739Z,42.10
2023-04-29T19:47:17.373Z,41.72
2023-04-29T19:49:44.676Z,40.63
2023-04-29T19:52:12.054Z,41.85
2023-04-29T19:54:40.718Z,42.17
2023-04-29T19:57:08.025Z,39.63
2023-04-29T19:59:35.381Z,42.08
2023-04-29T20:02:02.715Z,41.33
2023-04-29T20:04:31.735Z,40.83
2023-04-29T20:06:59.049Z,39.15
2023-04-29T20:09:26.481Z,40.15
2023-04-29T20:11:53.790Z,43.72
2023-04-29T20:14:21.164Z,39.65
2023-04-29T20:16:48.692Z,37.65
2023-04-29T20:19:16.086Z,45.65
2023-04-29T20:21:44.830Z,41.90
2023-04-29T20:24:12.149Z,41.83
2023-04-29T20:26:39.444Z,40.95
2023-04-29T20:29:06.757Z,45.65
2023-04-29T20:31:34.100Z,44.80
2023-04-29T20:34:01.537Z,46.03
2023-04-29T20:36:29.321Z,44.53
2023-04-29T20:38:58.035Z,40.75
2023-04-29T20:41:27.908Z,44.70
2023-04-29T20:43:55.259Z,45.80
2023-04-29T20:46:25.243Z,47.40
2023-04-29T20:48:53.547Z,45.42
2023-04-29T20:51:21.062Z,48.22
2023-04-29T20:53:48.837Z,48.25
2023-04-29T20:56:17.637Z,49.17
2023-04-29T20:58:44.933Z,48.35
2023-04-29T21:01:12.448Z,53.10
2023-04-29T21:03:40.422Z,48.45
2023-04-29T21:06:07.921Z,52.72
2023-04-29T21:08:35.338Z,52.00
2023-04-29T21:11:02.742Z,54.72
2023-04-29T21:13:31.485Z,51.17
2023-04-29T21:15:58.818Z,51.03
2023-04-29T21:18:26.293Z,53.53
2023-04-29T21:20:53.687Z,56.53
2023-04-29T21:23:21.007Z,55.03
2023-04-29T21:25:48.444Z,58.33
2023-04-29T21:28:16.953Z,59.38
2023-04-29T21:30:45.779Z,58.38
2023-04-29T21:33:13.134Z,58.72
2023-04-29T21:35:41.872Z,60.00
2023-04-29T21:38:09.646Z,58.90
2023-04-29T21:40:40.000Z,59.30
2023-04-29T21:43:07.352Z,64.63
2023-04-29T21:45:35.257Z,63.70
2023-04-29T21:48:08.419Z,59.05
2023-04-29T21:50:35.779Z,61.65
2023-04-29T21:53:03.098Z,56.60
2023-04-29T21:55:30.438Z,57.97
2023-04-29T21:57:57.794Z,60.70
2023-04-29T22:00:32.934Z,59.70
2023-04-29T22:03:00.949Z,60.30
2023-04-29T22:05:29.703Z,58.90
2023-04-29T22:07:57.975Z,56.05
2023-04-29T22:10:25.330Z,59.60
2023-04-29T22:12:52.658Z,59.40
2023-04-29T22:15:28.064Z,63.65
2023-04-29T22:17:59.575Z,63.25
2023-04-29T22:20:27.258Z,58.58
2023-04-29T22:22:56.126Z,62.50
2023-04-29T22:25:23.564Z,60.63
2023-04-29T22:30:36.605Z,58.50
2023-04-29T22:33:04.073Z,60.13
2023-04-29T22:35:31.383Z,59.13
2023-04-29T22:38:00.110Z,62.03
2023-04-29T22:40:27.493Z,58.92
2023-04-29T22:42:54.794Z,61.63
2023-04-29T22:45:22.151Z,58.05
2023-04-29T22:47:49.525Z,51.88
2023-04-29T22:50:17.022Z,56.50
2023-04-29T22:52:44.367Z,50.25
2023-04-29T22:55:13.041Z,39.60
2023-04-29T22:57:40.462Z,44.83
2023-04-29T23:00:08.338Z,46.00
2023-04-29T23:02:35.850Z,41.47
2023-04-29T23:05:03.721Z,41.53
2023-04-29T23:07:31.085Z,44.15
2023-04-29T23:09:58.390Z,42.38
2023-04-29T23:12:27.122Z,38.80
2023-04-29T23:14:54.514Z,42.63
2023-04-29T23:17:21.819Z,37.70
2023-04-29T23:19:49.127Z,37.22
2023-04-29T23:22:17.592Z,39.90
2023-04-29T23:24:44.950Z,38.72
2023-04-29T23:27:12.255Z,35.80
2023-04-29T23:29:41.446Z,35.58
2023-04-29T23:32:09.494Z,35.47
2023-04-29T23:34:36.887Z,36.35
2023-04-29T23:37:04.210Z,34.60
2023-04-29T23:39:31.499Z,36.25
2023-04-29T23:41:58.807Z,32.88
2023-04-29T23:44:26.194Z,30.73
2023-04-29T23:46:54.851Z,31.70
2023-04-29T23:49:22.216Z,32.78
2023-04-29T23:51:49.569Z,32.53
2023-04-29T23:54:17.030Z,35.35
2023-04-29T23:56:44.296Z,36.00
2023-04-29T23:59:11.594Z,34.75
